createdAt,value
2018-06-21T00:02:23.090Z,6.17
2018-06-21T00:05:01.131Z,7.50
2018-06-21T00:07:38.663Z,8.67
2018-06-21T00:10:15.898Z,7.43
2018-06-21T00:12:53.851Z,6.50
2018-06-21T00:15:30.877Z,6.87
2018-06-21T00:18:07.701Z,5.30
2018-06-21T00:20:44.516Z,7.23
2018-06-21T00:23:21.978Z,6.00
2018-06-21T00:26:00.057Z,7.43
2018-06-21T00:28:38.729Z,5.87
2018-06-21T00:31:17.372Z,6.93
2018-06-21T00:33:56.307Z,7.10
2018-06-21T00:36:34.288Z,6.93
2018-06-21T00:39:13.304Z,6.53
2018-06-21T00:41:52.301Z,6.60
2018-06-21T00:44:31.355Z,7.47
2018-06-21T00:47:09.719Z,6.30
2018-06-21T00:49:47.661Z,6.77
2018-06-21T00:52:24.588Z,6.80
2018-06-21T00:55:01.466Z,7.60
2018-06-21T00:57:39.628Z,6.63
2018-06-21T01:00:16.432Z,6.73
2018-06-21T01:02:53.220Z,6.87
2018-06-21T01:05:30.094Z,6.27
2018-06-21T01:08:07.097Z,7.13
2018-06-21T01:10:44.279Z,5.83
2018-06-21T01:13:21.143Z,6.83
2018-06-21T01:15:57.829Z,6.03
2018-06-21T01:18:35.423Z,6.10
2018-06-21T01:21:12.070Z,5.63
2018-06-21T01:23:48.929Z,6.17
2018-06-21T01:26:25.987Z,7.33
2018-06-21T01:29:02.646Z,5.57
2018-06-21T01:31:39.710Z,6.20
2018-06-21T01:34:16.545Z,6.30
2018-06-21T01:36:53.714Z,6.03
2018-06-21T01:39:30.574Z,5.97
2018-06-21T01:42:08.997Z,5.90
2018-06-21T01:44:45.539Z,5.30
2018-06-21T01:47:22.667Z,6.10
2018-06-21T01:49:59.563Z,6.20
2018-06-21T01:52:36.389Z,5.83
2018-06-21T01:55:13.667Z,6.00
2018-06-21T01:57:50.356Z,5.10
2018-06-21T02:00:27.540Z,4.93
2018-06-21T02:03:04.512Z,3.83
2018-06-21T02:05:41.136Z,5.10
2018-06-21T02:08:18.325Z,3.70
2018-06-21T02:10:55.550Z,3.90
2018-06-21T02:13:32.529Z,4.83
2018-06-21T02:16:09.173Z,2.97
2018-06-21T02:18:46.374Z,3.57
2018-06-21T02:21:23.250Z,3.63
2018-06-21T02:24:00.371Z,4.80
2018-06-21T02:26:37.357Z,3.90
2018-06-21T02:29:14.349Z,3.77
2018-06-21T02:31:51.631Z,4.23
2018-06-21T02:34:28.316Z,4.03
2018-06-21T02:37:05.383Z,4.10
2018-06-21T02:39:42.291Z,3.90
2018-06-21T02:42:19.185Z,4.63
2018-06-21T02:44:55.944Z,4.60
2018-06-21T02:47:33.197Z,5.03
2018-06-21T02:50:10.176Z,4.30
2018-06-21T02:52:47.295Z,4.23
2018-06-21T02:55:23.886Z,4.97
2018-06-21T02:58:01.281Z,4.90
2018-06-21T03:00:38.518Z,4.00
2018-06-21T03:03:14.703Z,4.20
2018-06-21T03:05:52.095Z,3.83
2018-06-21T03:08:28.750Z,4.27
2018-06-21T03:11:05.675Z,3.63
2018-06-21T03:13:42.744Z,4.17
2018-06-21T03:16:19.856Z,3.70
2018-06-21T03:18:56.833Z,4.60
2018-06-21T03:21:33.773Z,3.67
2018-06-21T03:24:10.595Z,4.03
2018-06-21T03:26:47.492Z,4.60
2018-06-21T03:29:24.333Z,3.93
2018-06-21T03:32:01.673Z,4.10
2018-06-21T03:34:39.425Z,4.80
2018-06-21T03:37:16.763Z,3.97
2018-06-21T03:39:54.141Z,4.17
2018-06-21T03:42:31.016Z,3.67
2018-06-21T03:45:07.857Z,4.27
2018-06-21T03:47:44.609Z,3.90
2018-06-21T03:50:21.440Z,5.33
2018-06-21T03:52:58.524Z,3.80
2018-06-21T03:55:35.452Z,3.80
2018-06-21T03:58:12.282Z,4.33
2018-06-21T04:00:49.859Z,5.00
2018-06-21T04:03:27.360Z,4.67
2018-06-21T04:06:04.260Z,5.13
2018-06-21T04:08:41.047Z,4.43
2018-06-21T04:11:18.203Z,4.30
2018-06-21T04:13:54.894Z,4.03
2018-06-21T04:16:31.748Z,3.60
2018-06-21T04:19:08.890Z,5.10
2018-06-21T04:21:45.852Z,6.17
2018-06-21T04:24:22.790Z,4.00
2018-06-21T04:27:00.195Z,5.17
2018-06-21T04:29:37.476Z,4.47
2018-06-21T04:32:14.362Z,4.57
2018-06-21T04:34:51.939Z,3.80
2018-06-21T04:37:28.920Z,4.13
2018-06-21T04:40:05.668Z,4.30
2018-06-21T04:42:43.618Z,3.90
2018-06-21T04:45:20.672Z,4.33
2018-06-21T04:47:57.635Z,4.43
2018-06-21T04:50:34.796Z,3.50
2018-06-21T04:53:11.624Z,3.80
2018-06-21T04:55:48.828Z,4.23
2018-06-21T04:58:25.557Z,4.53
2018-06-21T05:01:02.581Z,4.80
2018-06-21T05:03:39.529Z,5.60
2018-06-21T05:06:16.658Z,5.80
2018-06-21T05:08:54.408Z,5.40
2018-06-21T05:11:31.529Z,4.70
2018-06-21T05:14:09.063Z,5.07
2018-06-21T05:16:45.916Z,5.60
2018-06-21T05:19:23.418Z,5.10
2018-06-21T05:22:01.430Z,5.57
2018-06-21T05:24:38.494Z,4.77
2018-06-21T05:27:15.646Z,6.10
2018-06-21T05:29:52.973Z,4.97
2018-06-21T05:32:29.502Z,7.23
2018-06-21T05:35:06.546Z,5.70
2018-06-21T05:37:43.587Z,6.17
2018-06-21T05:40:28.864Z,5.80
2018-06-21T05:43:06.853Z,5.57
2018-06-21T05:45:43.679Z,7.37
2018-06-21T05:48:20.450Z,5.90
2018-06-21T05:50:57.484Z,5.90
2018-06-21T05:53:35.275Z,6.30
2018-06-21T05:56:12.363Z,6.90
2018-06-21T05:58:49.148Z,6.87
2018-06-21T06:01:26.027Z,6.60
2018-06-21T06:04:03.174Z,7.37
2018-06-21T06:06:40.049Z,8.10
2018-06-21T06:09:17.372Z,8.17
2018-06-21T06:11:54.053Z,6.40
2018-06-21T06:14:31.096Z,6.43
2018-06-21T06:17:07.766Z,7.10
2018-06-21T06:19:44.903Z,7.50
2018-06-21T06:22:22.395Z,8.27
2018-06-21T06:25:00.079Z,7.50
2018-06-21T06:27:37.671Z,7.90
2018-06-21T06:30:14.048Z,8.37
2018-06-21T06:32:51.020Z,9.70
2018-06-21T06:35:29.900Z,7.73
2018-06-21T06:38:06.176Z,7.90
2018-06-21T06:40:43.469Z,7.20
2018-06-21T06:43:20.064Z,8.50
2018-06-21T06:45:57.240Z,7.50
2018-06-21T06:48:34.218Z,8.30
2018-06-21T06:51:11.134Z,8.23
2018-06-21T06:53:48.052Z,9.40
2018-06-21T06:56:25.169Z,10.10
2018-06-21T06:59:01.869Z,9.10
2018-06-21T07:01:38.682Z,9.67
2018-06-21T07:04:16.235Z,9.10
2018-06-21T07:06:53.047Z,8.33
2018-06-21T07:09:29.889Z,9.73
2018-06-21T07:12:07.048Z,9.23
2018-06-21T07:14:43.965Z,9.07
2018-06-21T07:17:21.057Z,8.23
2018-06-21T07:19:58.126Z,9.10
2018-06-21T07:22:34.835Z,8.40
2018-06-21T07:25:12.753Z,8.73
2018-06-21T07:27:49.964Z,8.93
2018-06-21T07:30:26.611Z,8.60
2018-06-21T07:33:03.518Z,7.80
2018-06-21T07:35:40.236Z,7.77
2018-06-21T07:38:17.257Z,8.30
2018-06-21T07:40:55.350Z,7.40
2018-06-21T07:43:32.244Z,7.30
2018-06-21T07:46:10.557Z,7.90
2018-06-21T07:48:47.202Z,8.37
2018-06-21T07:51:25.448Z,7.37
2018-06-21T07:54:02.322Z,7.23
2018-06-21T07:56:39.720Z,6.60
2018-06-21T07:59:16.909Z,9.10
2018-06-21T08:01:53.966Z,8.07
2018-06-21T08:04:31.182Z,8.00
2018-06-21T08:07:07.927Z,7.87
2018-06-21T08:09:44.167Z,9.53
2018-06-21T08:12:25.863Z,6.80
2018-06-21T08:15:03.126Z,5.80
2018-06-21T08:17:40.458Z,6.63
2018-06-21T08:20:17.067Z,4.93
2018-06-21T08:22:54.127Z,4.23
2018-06-21T08:25:31.090Z,4.63
2018-06-21T08:28:08.247Z,3.97
2018-06-21T08:30:45.073Z,4.23
2018-06-21T08:33:21.927Z,4.40
2018-06-21T08:35:58.709Z,4.20
2018-06-21T08:38:35.509Z,4.63
2018-06-21T08:41:12.587Z,5.40
2018-06-21T08:43:49.465Z,4.30
2018-06-21T08:46:26.365Z,6.33
2018-06-21T08:49:03.613Z,5.03
2018-06-21T08:51:40.449Z,4.90
2018-06-21T08:54:16.843Z,4.63
2018-06-21T08:56:53.698Z,4.90
2018-06-21T08:59:30.766Z,5.23
2018-06-21T09:02:07.598Z,5.17
2018-06-21T09:04:44.601Z,4.50
2018-06-21T09:07:21.778Z,4.53
2018-06-21T09:09:58.843Z,4.40
2018-06-21T09:12:39.013Z,5.50
2018-06-21T09:15:15.506Z,4.53
2018-06-21T09:17:52.652Z,4.30
2018-06-21T09:20:29.582Z,4.63
2018-06-21T09:23:06.712Z,5.60
2018-06-21T09:25:44.871Z,7.23
2018-06-21T09:28:21.989Z,7.50
2018-06-21T09:30:58.831Z,6.60
2018-06-21T09:33:45.003Z,7.03
2018-06-21T09:36:22.016Z,7.10
2018-06-21T09:39:04.027Z,7.30
2018-06-21T09:41:45.816Z,7.53
2018-06-21T09:45:28.196Z,6.90
2018-06-21T09:48:10.509Z,6.30
2018-06-21T09:50:48.234Z,6.17
2018-06-21T09:53:26.184Z,5.63
2018-06-21T09:56:03.700Z,6.97
2018-06-21T09:58:40.513Z,5.93
2018-06-21T10:01:17.785Z,7.17
2018-06-21T10:03:54.970Z,5.80
2018-06-21T10:06:32.125Z,5.90
2018-06-21T10:09:10.207Z,6.83
2018-06-21T10:11:46.726Z,6.30
2018-06-21T10:14:24.271Z,5.40
2018-06-21T10:17:01.093Z,5.00
2018-06-21T10:19:39.244Z,5.93
2018-06-21T10:22:17.196Z,5.20
2018-06-21T10:24:54.150Z,5.07
2018-06-21T10:27:30.866Z,5.63
2018-06-21T10:30:08.064Z,8.40
2018-06-21T10:32:45.117Z,5.57
2018-06-21T10:35:22.015Z,7.70
2018-06-21T10:37:58.826Z,4.83
2018-06-21T10:40:35.855Z,6.20
2018-06-21T10:43:13.053Z,6.00
2018-06-21T10:45:50.682Z,5.00
2018-06-21T10:48:27.181Z,6.70
2018-06-21T10:51:04.156Z,6.57
2018-06-21T10:53:40.900Z,5.60
2018-06-21T10:56:17.968Z,5.77
2018-06-21T10:58:55.016Z,7.03
2018-06-21T11:01:31.781Z,7.00
2018-06-21T11:04:08.595Z,6.00
2018-06-21T11:06:44.863Z,6.60
2018-06-21T11:09:21.627Z,6.03
2018-06-21T11:11:58.495Z,5.47
2018-06-21T11:14:35.026Z,5.37
2018-06-21T11:17:12.857Z,5.77
2018-06-21T11:19:49.855Z,4.27
2018-06-21T11:22:26.882Z,3.60
2018-06-21T11:25:04.138Z,3.47
2018-06-21T11:27:42.025Z,3.27
2018-06-21T11:30:18.964Z,3.60
2018-06-21T11:32:56.078Z,3.50
2018-06-21T11:35:33.558Z,3.13
2018-06-21T11:38:10.245Z,3.53
2018-06-21T11:40:47.970Z,3.43
2018-06-21T11:43:25.074Z,3.00
2018-06-21T11:46:02.289Z,3.30
2018-06-21T11:48:39.750Z,3.03
2018-06-21T11:51:16.462Z,2.63
2018-06-21T11:53:53.357Z,2.37
2018-06-21T11:56:30.563Z,4.70
2018-06-21T11:59:08.448Z,2.20
2018-06-21T12:01:45.394Z,2.15
2018-06-21T12:04:22.606Z,2.97
2018-06-21T12:06:59.444Z,2.90
2018-06-21T12:09:36.416Z,2.27
2018-06-21T12:12:13.508Z,2.13
2018-06-21T12:14:50.739Z,2.17
2018-06-21T12:17:27.522Z,2.87
2018-06-21T12:20:04.396Z,2.93
2018-06-21T12:22:40.582Z,2.07
2018-06-21T12:25:17.684Z,1.77
2018-06-21T12:27:54.848Z,2.40
2018-06-21T12:30:31.734Z,2.07
2018-06-21T12:33:08.675Z,2.23
2018-06-21T12:35:45.681Z,2.40
2018-06-21T12:38:23.666Z,1.90
2018-06-21T12:41:01.289Z,2.17
2018-06-21T12:43:37.993Z,2.13
2018-06-21T12:46:15.328Z,3.58
2018-06-21T12:48:51.923Z,2.70
2018-06-21T12:51:28.973Z,1.87
2018-06-21T12:54:05.968Z,2.40
2018-06-21T12:56:43.264Z,2.03
2018-06-21T12:59:25.459Z,2.17
2018-06-21T13:02:01.920Z,2.30
2018-06-21T13:04:39.907Z,2.47
2018-06-21T13:07:17.521Z,2.20
2018-06-21T13:10:04.618Z,1.30
2018-06-21T13:12:52.814Z,1.80
2018-06-21T13:15:30.011Z,2.33
2018-06-21T13:18:06.678Z,2.37
2018-06-21T13:20:43.871Z,1.80
2018-06-21T13:23:20.709Z,2.10
2018-06-21T13:25:57.453Z,2.00
2018-06-21T13:28:34.390Z,2.50
2018-06-21T13:31:11.479Z,2.50
2018-06-21T13:33:48.874Z,2.00
2018-06-21T13:36:25.610Z,2.00
2018-06-21T13:39:02.181Z,2.00
2018-06-21T13:41:39.175Z,1.67
2018-06-21T13:44:16.043Z,2.03
2018-06-21T13:46:53.740Z,1.50
2018-06-21T13:49:30.436Z,1.80
2018-06-21T13:52:07.248Z,3.23
2018-06-21T13:54:44.020Z,1.70
2018-06-21T13:57:21.977Z,1.80
2018-06-21T13:59:58.712Z,1.90
2018-06-21T14:02:36.886Z,1.67
2018-06-21T14:05:13.570Z,1.93
2018-06-21T14:07:50.962Z,1.73
2018-06-21T14:10:27.794Z,1.67
2018-06-21T14:13:04.618Z,1.60
2018-06-21T14:15:41.617Z,2.00
2018-06-21T14:18:18.568Z,1.90
2018-06-21T14:20:55.689Z,1.90
2018-06-21T14:23:32.854Z,2.20
2018-06-21T14:26:09.667Z,1.87
2018-06-21T14:28:47.192Z,1.50
2018-06-21T14:31:25.562Z,1.57
2018-06-21T14:34:02.347Z,1.73
2018-06-21T14:36:39.617Z,1.73
2018-06-21T14:39:16.331Z,1.80
2018-06-21T14:41:53.552Z,1.63
2018-06-21T14:44:30.545Z,2.10
2018-06-21T14:47:07.250Z,1.33
2018-06-21T14:49:44.409Z,1.40
2018-06-21T14:52:21.769Z,1.50
2018-06-21T14:54:58.615Z,1.50
2018-06-21T14:57:36.470Z,2.10
2018-06-21T15:00:13.856Z,1.90
2018-06-21T15:02:50.726Z,1.47
2018-06-21T15:05:28.408Z,1.50
2018-06-21T15:08:04.930Z,2.00
2018-06-21T15:10:42.280Z,1.87
2018-06-21T15:13:18.975Z,1.57
2018-06-21T15:15:55.941Z,2.33
2018-06-21T15:18:32.855Z,2.60
2018-06-21T15:21:09.722Z,3.73
2018-06-21T15:23:47.031Z,1.83
2018-06-21T15:26:23.986Z,2.10
2018-06-21T15:29:00.644Z,1.53
2018-06-21T15:31:37.613Z,1.17
2018-06-21T15:34:14.363Z,1.63
2018-06-21T15:36:51.402Z,1.60
2018-06-21T15:39:28.528Z,2.30
2018-06-21T15:42:05.475Z,5.17
2018-06-21T15:44:42.341Z,2.10
2018-06-21T15:47:19.982Z,1.70
2018-06-21T15:49:58.153Z,1.70
2018-06-21T15:52:35.016Z,2.03
2018-06-21T15:55:11.794Z,2.03
2018-06-21T15:57:48.904Z,1.90
2018-06-21T16:00:26.127Z,2.03
2018-06-21T16:03:02.958Z,1.93
2018-06-21T16:05:40.343Z,1.90
2018-06-21T16:08:18.271Z,1.70
2018-06-21T16:10:55.161Z,1.60
2018-06-21T16:13:32.136Z,1.37
2018-06-21T16:16:08.889Z,1.60
2018-06-21T16:18:45.792Z,1.83
2018-06-21T16:21:23.981Z,1.63
2018-06-21T16:24:03.397Z,1.50
2018-06-21T16:26:52.313Z,1.80
2018-06-21T16:29:29.426Z,1.40
2018-06-21T16:32:06.856Z,1.50
2018-06-21T16:34:44.469Z,3.40
2018-06-21T16:37:21.976Z,1.57
2018-06-21T16:39:59.988Z,1.70
2018-06-21T16:42:37.781Z,1.90
2018-06-21T16:45:15.122Z,1.40
2018-06-21T16:47:52.560Z,1.83
2018-06-21T16:50:29.528Z,2.50
2018-06-21T16:53:06.075Z,2.00
2018-06-21T16:55:42.897Z,1.80
2018-06-21T16:58:25.702Z,1.57
2018-06-21T17:01:02.847Z,1.60
2018-06-21T17:03:39.963Z,1.43
2018-06-21T17:06:17.117Z,1.30
2018-06-21T17:08:53.775Z,1.60
2018-06-21T17:11:30.595Z,1.47
2018-06-21T17:14:06.943Z,1.30
2018-06-21T17:16:44.425Z,4.37
2018-06-21T17:19:22.771Z,1.90
2018-06-21T17:21:59.476Z,1.97
2018-06-21T17:24:36.406Z,1.70
2018-06-21T17:27:13.361Z,2.00
2018-06-21T17:29:50.614Z,1.50
2018-06-21T17:32:27.670Z,1.63
2018-06-21T17:35:05.681Z,2.57
2018-06-21T17:37:42.961Z,1.67
2018-06-21T17:40:19.980Z,2.43
2018-06-21T17:42:57.987Z,2.13
2018-06-21T17:45:35.974Z,1.50
2018-06-21T17:48:13.272Z,1.50
2018-06-21T17:50:50.494Z,1.50
2018-06-21T17:53:29.023Z,2.17
2018-06-21T17:56:06.261Z,1.60
2018-06-21T17:58:43.459Z,1.87
2018-06-21T18:01:26.798Z,1.70
2018-06-21T18:04:04.147Z,2.20
2018-06-21T18:06:41.834Z,1.67
2018-06-21T18:09:19.503Z,1.90
2018-06-21T18:11:56.846Z,2.40
2018-06-21T18:14:33.817Z,2.00
2018-06-21T18:17:10.654Z,2.33
2018-06-21T18:19:47.486Z,2.13
2018-06-21T18:22:24.640Z,1.70
2018-06-21T18:27:59.845Z,2.00
2018-06-21T18:30:37.097Z,1.80
2018-06-21T18:33:14.729Z,2.10
2018-06-21T18:35:51.994Z,1.90
2018-06-21T18:38:28.952Z,2.37
2018-06-21T18:41:06.746Z,1.97
2018-06-21T18:43:43.801Z,1.80
2018-06-21T18:46:20.700Z,2.00
2018-06-21T18:48:57.409Z,1.50
2018-06-21T18:51:34.869Z,1.70
2018-06-21T18:54:12.126Z,1.90
2018-06-21T18:56:49.172Z,1.60
2018-06-21T18:59:26.404Z,1.73
2018-06-21T19:02:03.158Z,2.20
2018-06-21T19:04:40.342Z,2.07
2018-06-21T19:07:22.902Z,2.40
2018-06-21T19:10:05.072Z,2.50
2018-06-21T19:12:42.345Z,1.90
2018-06-21T19:15:19.458Z,2.53
2018-06-21T19:17:55.937Z,2.33
2018-06-21T19:20:32.820Z,3.17
2018-06-21T19:23:11.274Z,2.77
2018-06-21T19:25:48.598Z,2.57
2018-06-21T19:28:25.592Z,2.30
2018-06-21T19:31:02.898Z,2.10
2018-06-21T19:33:39.235Z,2.73
2018-06-21T19:36:15.640Z,2.70
2018-06-21T19:38:52.439Z,2.10
2018-06-21T19:41:29.653Z,2.03
2018-06-21T19:44:07.070Z,2.20
2018-06-21T19:46:44.472Z,2.00
2018-06-21T19:49:21.465Z,1.80
2018-06-21T19:51:58.972Z,3.10
2018-06-21T19:54:36.167Z,4.10
2018-06-21T19:57:14.107Z,3.17
2018-06-21T19:59:51.137Z,2.20
2018-06-21T20:02:33.093Z,2.40
2018-06-21T20:05:10.730Z,24.20
2018-06-21T20:07:47.660Z,2.90
2018-06-21T20:10:24.509Z,4.27
2018-06-21T20:13:01.598Z,2.73
2018-06-21T20:15:54.211Z,2.43
2018-06-21T20:18:30.835Z,4.30
2018-06-21T20:21:12.679Z,2.97
2018-06-21T20:23:52.421Z,4.43
2018-06-21T20:26:29.339Z,2.83
2018-06-21T20:29:10.308Z,2.60
2018-06-21T20:31:46.977Z,2.53
2018-06-21T20:34:23.672Z,2.60
2018-06-21T20:37:00.800Z,2.70
2018-06-21T20:39:37.691Z,2.57
2018-06-21T20:42:14.463Z,2.53
2018-06-21T20:44:51.465Z,3.23
2018-06-21T20:47:28.108Z,2.93
2018-06-21T20:50:05.302Z,3.30
2018-06-21T20:52:42.098Z,2.50
2018-06-21T20:55:18.929Z,1.90
2018-06-21T20:57:56.072Z,2.77
2018-06-21T21:00:33.719Z,2.47
2018-06-21T21:03:11.110Z,2.70
2018-06-21T21:05:47.946Z,2.20
2018-06-21T21:08:25.287Z,2.90
2018-06-21T21:11:02.152Z,2.13
2018-06-21T21:13:39.180Z,2.63
2018-06-21T21:16:16.551Z,2.37
2018-06-21T21:18:53.580Z,4.03
2018-06-21T21:21:30.506Z,2.63
2018-06-21T21:24:07.526Z,2.53
2018-06-21T21:26:43.966Z,2.80
2018-06-21T21:29:21.153Z,4.50
2018-06-21T21:31:59.192Z,8.40
2018-06-21T21:34:36.389Z,2.87
2018-06-21T21:37:13.282Z,2.47
2018-06-21T21:39:50.588Z,2.90
2018-06-21T21:42:28.026Z,2.23
2018-06-21T21:45:05.761Z,3.40
2018-06-21T21:47:42.261Z,2.77
2018-06-21T21:50:18.992Z,2.20
2018-06-21T21:52:55.915Z,3.60
2018-06-21T21:55:33.156Z,3.50
2018-06-21T21:58:10.567Z,2.97
2018-06-21T22:00:49.378Z,2.70
2018-06-21T22:03:26.912Z,2.40
2018-06-21T22:06:03.612Z,2.67
2018-06-21T22:08:40.568Z,3.10
2018-06-21T22:11:17.723Z,3.57
2018-06-21T22:13:59.634Z,2.70
2018-06-21T22:16:37.166Z,3.23
2018-06-21T22:19:14.971Z,3.10
2018-06-21T22:21:52.856Z,2.50
2018-06-21T22:24:30.302Z,2.17
2018-06-21T22:27:07.486Z,3.30
2018-06-21T22:29:44.727Z,2.63
2018-06-21T22:32:21.914Z,2.83
2018-06-21T22:34:58.966Z,3.30
2018-06-21T22:37:35.658Z,3.27
2018-06-21T22:40:12.671Z,2.70
2018-06-21T22:42:49.824Z,2.67
2018-06-21T22:45:27.242Z,2.40
2018-06-21T22:48:04.693Z,2.73
2018-06-21T22:50:45.105Z,3.30
2018-06-21T22:53:22.296Z,3.10
2018-06-21T22:55:59.534Z,2.43
2018-06-21T22:58:37.022Z,3.50
2018-06-21T23:01:13.860Z,3.90
2018-06-21T23:03:50.961Z,2.80
2018-06-21T23:06:27.634Z,2.90
2018-06-21T23:09:06.162Z,3.33
2018-06-21T23:11:43.736Z,3.00
2018-06-21T23:14:21.929Z,2.90
2018-06-21T23:16:59.554Z,3.07
2018-06-21T23:19:39.615Z,2.40
2018-06-21T23:22:16.282Z,3.50
2018-06-21T23:24:53.946Z,3.10
2018-06-21T23:27:31.125Z,2.57
2018-06-21T23:30:07.834Z,2.53
2018-06-21T23:32:45.424Z,3.97
2018-06-21T23:35:23.367Z,2.70
2018-06-21T23:37:59.802Z,2.20
2018-06-21T23:40:36.927Z,3.43
2018-06-21T23:43:13.828Z,2.43
2018-06-21T23:45:52.125Z,2.40
2018-06-21T23:48:29.709Z,3.10
2018-06-21T23:51:07.790Z,2.63
2018-06-21T23:53:45.314Z,3.10
2018-06-21T23:56:23.775Z,2.50
2018-06-21T23:59:00.195Z,2.50
